Portage, Ohio
Current Conditions -  °F | °C
As of 8:53 AM on Saturday 25 Oct 2014 (Local Time) from KTDZ Reporting Station
Haze Haze  
Wind Chill: 53°   Ceiling: 4700
Heat Index: 53°   Visibility: 6mi
Dew Point: 49°   Wind: 10mph
Humidity: 86%   Direction: 230°SW
Pressure: 29.89"   Gusts: NA
Location:  41.33°N, 83.65°W
Report Text: KTDZ 251253Z AUTO 23009KT 6SM BR BKN047 BKN060 12/09 A2989 RMK AO2 SLP122 T01170094 TSNO
Loading
Personal Weather Stations






























Interactive Weather Map
Tropical Storm Tracking
New forecast layout! Learn more

10-Day Weather Forecast

Advertisements
Track Severe Weather on mobile